Aérodrome :
LOGIN :

S'inscrire | Disclaimer

   EN    FR    IT 

 










Légende :    VFR   VFR Marginal   IFR   IFR Intensif   IFR Très Intensif
Visi : 
Plafond : 
>= 8 km
>= 3000ft
5 à 8 km
1000 à 3000 ft
1500m à 5 km
500 à 1000 ft
800 à 1500m
200 à 500 ft
< 800m
< 200 ft
Symboles :   Orages  Brouillard  Fortes neiges  Fortes précipitations  Vent > 20 kt
SIGMETs :   Divers  Orages  Givrage  Turbulence  Onde Orograph.  Cendres Volcan.






- Altitude de l'aérodrome : 407 ft


EGDM - MoD Boscombe Down Amesbury

DERNIER METAR :
  • 071250Z 24011KT 9999 SCT020 BKN026 10/06 Q1014 TEMPO FEW020 RMK WHT TEMPO BLU

METARs EXPIRÉS :
  • 071150Z 23010KT 9999 FEW020 BKN250 10/06 Q1014 TEMPO SCT022 RMK BLU TEMPO WHT
  • 071120Z 24012KT 9999 FEW018 BKN250 10/06 Q1014 NOSIG RMK BLU BLU
  • 071050Z 23010KT 9999 FEW014 SCT250 10/07 Q1014 NOSIG RMK BLU BLU

TAF TAF EGDM
Valide du 07 à 12h jusqu'au 07 à 18h UTC


071039Z 0712/0718 23012KT 9999 SCT030
TEMPO 0712/0714 SCT017
BECMG 0714/0717 BKN018



MET'MAP, la Météo Aéronautique d'un coup d'oeil ! - Copyright ORBIFLY Décembre 2007 - Disclaimer

ORBIFLY MET'MAP TEAM :

Programmation & Développement : Alexandra Zaïnal
Sur une idée originale de : Baudouin d'Aumeries
Assistance à la programmation : Marc-Olivier Méhu
Soutien technique & logistique : Manuel Goepfert

Contact : metmap@orbifly.com




SOURCES & CREDITS :

   NOAA